createdAt,value
2019-02-18T00:01:00.465Z,9.23
2019-02-18T00:06:12.201Z,9.83
2019-02-18T00:11:23.086Z,8.90
2019-02-18T00:16:30.711Z,10.03
2019-02-18T00:21:41.539Z,9.20
2019-02-18T00:26:59.331Z,9.47
2019-02-18T00:32:07.361Z,10.37
2019-02-18T00:37:24.138Z,9.23
2019-02-18T00:42:27.365Z,10.33
2019-02-18T00:47:35.368Z,10.00
2019-02-18T00:52:52.425Z,8.90
2019-02-18T00:58:05.123Z,9.60
2019-02-18T01:03:13.685Z,8.57
2019-02-18T01:08:27.517Z,8.28
2019-02-18T01:13:42.082Z,8.53
2019-02-18T01:18:59.950Z,9.43
2019-02-18T01:24:11.790Z,8.13
2019-02-18T01:29:22.883Z,8.78
2019-02-18T01:34:35.780Z,8.95
2019-02-18T01:39:46.697Z,8.97
2019-02-18T01:44:57.542Z,8.47
2019-02-18T01:50:08.613Z,8.23
2019-02-18T01:55:20.303Z,8.30
2019-02-18T02:00:30.345Z,8.25
2019-02-18T02:05:41.109Z,8.60
2019-02-18T02:10:52.019Z,8.03
2019-02-18T02:16:03.313Z,8.13
2019-02-18T02:21:11.946Z,7.40
2019-02-18T02:26:27.601Z,7.75
2019-02-18T02:31:37.645Z,8.10
2019-02-18T02:36:52.302Z,6.83
2019-02-18T02:42:03.351Z,8.20
2019-02-18T02:47:14.651Z,7.47
2019-02-18T02:52:29.587Z,7.78
2019-02-18T02:57:45.290Z,8.13
2019-02-18T03:02:57.131Z,8.73
2019-02-18T03:08:19.971Z,7.37
2019-02-18T03:13:17.956Z,7.42
2019-02-18T03:18:28.773Z,7.43
2019-02-18T03:23:39.683Z,8.13
2019-02-18T03:29:19.820Z,8.00
2019-02-18T03:34:37.912Z,8.55
2019-02-18T03:39:49.961Z,7.43
2019-02-18T03:45:07.216Z,7.47
2019-02-18T03:50:20.742Z,10.00
2019-02-18T03:55:28.461Z,9.17
2019-02-18T04:00:42.074Z,8.83
2019-02-18T04:05:55.141Z,9.30
2019-02-18T04:11:07.832Z,9.93
2019-02-18T04:16:20.477Z,9.45
2019-02-18T04:21:30.162Z,9.37
2019-02-18T04:26:44.391Z,9.87
2019-02-18T04:31:52.678Z,10.23
2019-02-18T04:37:02.125Z,10.87
2019-02-18T04:42:16.950Z,9.47
2019-02-18T04:47:33.923Z,9.10
2019-02-18T04:52:50.161Z,10.87
2019-02-18T04:58:02.419Z,11.40
2019-02-18T05:03:13.142Z,11.60
2019-02-18T05:08:20.059Z,11.13
2019-02-18T05:13:31.414Z,11.30
2019-02-18T05:18:39.848Z,11.00
2019-02-18T05:23:50.243Z,9.23
2019-02-18T05:29:03.921Z,11.40
2019-02-18T05:34:16.552Z,11.00
2019-02-18T05:39:25.613Z,11.38
2019-02-18T05:44:37.389Z,10.43
2019-02-18T05:49:47.537Z,10.90
2019-02-18T05:54:57.894Z,12.67
2019-02-18T06:00:07.548Z,12.57
2019-02-18T06:05:20.139Z,10.98
2019-02-18T06:10:30.601Z,9.70
2019-02-18T06:15:45.803Z,9.60
2019-02-18T06:21:01.125Z,10.63
2019-02-18T06:26:10.131Z,11.40
2019-02-18T06:31:21.777Z,10.90
2019-02-18T06:36:29.929Z,10.40
2019-02-18T06:41:41.133Z,10.87
2019-02-18T06:46:58.827Z,11.63
2019-02-18T06:52:06.905Z,11.33
2019-02-18T06:57:46.348Z,11.30
2019-02-18T07:03:19.642Z,9.93
2019-02-18T07:08:44.747Z,10.33
2019-02-18T07:13:55.072Z,12.37
2019-02-18T07:19:09.486Z,11.67
2019-02-18T07:24:21.268Z,11.23
2019-02-18T07:29:31.303Z,10.23
2019-02-18T07:34:44.871Z,13.00
2019-02-18T07:40:01.508Z,11.27
2019-02-18T07:45:05.229Z,11.17
2019-02-18T07:50:20.576Z,11.73
2019-02-18T07:55:26.183Z,11.40
2019-02-18T08:00:40.112Z,10.73
2019-02-18T08:05:53.445Z,11.17
2019-02-18T08:11:10.791Z,10.57
2019-02-18T08:16:22.629Z,11.45
2019-02-18T08:21:31.711Z,12.20
2019-02-18T08:26:45.386Z,11.20
2019-02-18T08:31:57.451Z,9.20
2019-02-18T08:37:10.214Z,9.67
2019-02-18T08:42:17.955Z,10.00
2019-02-18T08:47:31.567Z,10.63
2019-02-18T08:52:44.581Z,9.50
2019-02-18T08:57:53.911Z,10.03
2019-02-18T09:03:06.688Z,9.53
2019-02-18T09:08:17.485Z,9.63
2019-02-18T09:13:29.938Z,9.53
2019-02-18T09:18:38.021Z,9.87
2019-02-18T09:23:50.508Z,9.77
2019-02-18T09:28:59.012Z,9.30
2019-02-18T09:34:08.974Z,9.40
2019-02-18T09:39:30.521Z,8.53
2019-02-18T09:44:36.804Z,8.83
2019-02-18T09:49:46.075Z,9.03
2019-02-18T09:54:54.150Z,9.20
2019-02-18T10:00:05.733Z,9.77
2019-02-18T10:05:13.326Z,10.00
2019-02-18T10:10:22.308Z,8.63
2019-02-18T10:15:37.754Z,8.68
2019-02-18T10:20:48.458Z,9.63
2019-02-18T10:25:59.206Z,9.10
2019-02-18T10:31:10.046Z,9.35
2019-02-18T10:36:18.073Z,9.05
2019-02-18T10:41:26.406Z,8.88
2019-02-18T10:46:40.594Z,9.35
2019-02-18T10:51:45.500Z,9.78
2019-02-18T10:56:53.438Z,9.73
2019-02-18T11:02:02.589Z,9.58
2019-02-18T11:07:20.581Z,10.65
2019-02-18T11:12:29.562Z,9.80
2019-02-18T11:17:40.423Z,8.65
2019-02-18T11:22:50.625Z,9.50
2019-02-18T11:28:04.357Z,9.70
2019-02-18T11:33:15.942Z,10.30
2019-02-18T11:38:26.148Z,9.28
2019-02-18T11:43:34.655Z,9.28
2019-02-18T11:48:47.213Z,10.20
2019-02-18T11:53:59.947Z,10.25
2019-02-18T11:59:12.484Z,9.98
2019-02-18T12:04:25.957Z,9.85
2019-02-18T12:09:39.463Z,9.47
2019-02-18T12:14:48.779Z,9.28
2019-02-18T12:19:59.485Z,8.95
2019-02-18T12:25:07.560Z,8.98
2019-02-18T12:30:38.694Z,11.00
2019-02-18T12:35:51.306Z,10.32
2019-02-18T12:41:04.373Z,9.88
2019-02-18T12:46:15.857Z,10.43
2019-02-18T12:51:26.256Z,9.65
2019-02-18T12:56:38.920Z,9.30
2019-02-18T13:01:53.458Z,9.58
2019-02-18T13:07:05.069Z,9.80
2019-02-18T13:12:14.032Z,10.08
2019-02-18T13:17:29.467Z,9.80
2019-02-18T13:22:43.543Z,10.28
2019-02-18T13:27:57.056Z,10.10
2019-02-18T13:33:10.119Z,10.55
2019-02-18T13:38:22.801Z,10.57
2019-02-18T13:43:38.123Z,10.58
2019-02-18T13:48:51.532Z,11.05
2019-02-18T13:54:20.527Z,10.58
2019-02-18T13:59:31.334Z,10.88
2019-02-18T14:04:44.372Z,10.88
2019-02-18T14:09:53.760Z,11.57
2019-02-18T14:15:04.851Z,10.98
2019-02-18T14:20:18.479Z,11.36
2019-02-18T14:25:27.101Z,10.78
2019-02-18T14:30:39.983Z,11.10
2019-02-18T14:35:47.841Z,11.60
2019-02-18T14:40:58.823Z,11.75
2019-02-18T14:46:07.439Z,11.10
2019-02-18T14:51:56.136Z,12.30
2019-02-18T14:57:06.662Z,11.97
2019-02-18T15:02:18.302Z,11.57
2019-02-18T15:07:28.532Z,12.58
2019-02-18T15:12:38.020Z,12.10
2019-02-18T15:17:47.948Z,12.23
2019-02-18T15:22:59.591Z,12.50
2019-02-18T15:28:11.466Z,13.03
2019-02-18T15:33:21.436Z,11.93
2019-02-18T15:38:33.186Z,11.55
2019-02-18T15:43:41.675Z,11.70
2019-02-18T15:48:52.492Z,11.57
2019-02-18T15:54:02.893Z,12.23
2019-02-18T15:59:15.469Z,12.40
2019-02-18T16:04:29.137Z,12.63
2019-02-18T16:09:40.480Z,12.90
2019-02-18T16:14:53.038Z,12.97
2019-02-18T16:20:02.669Z,13.17
2019-02-18T16:25:14.161Z,13.60
2019-02-18T16:30:25.031Z,12.77
2019-02-18T16:35:35.764Z,13.40
2019-02-18T16:40:47.071Z,13.83
2019-02-18T16:45:55.782Z,12.73
2019-02-18T16:51:04.138Z,13.50
2019-02-18T16:56:17.779Z,13.90
2019-02-18T17:01:32.170Z,12.97
2019-02-18T17:06:43.206Z,13.47
2019-02-18T17:11:51.109Z,14.77
2019-02-18T17:17:00.472Z,13.63
2019-02-18T17:22:11.277Z,15.47
2019-02-18T17:27:22.087Z,14.07
2019-02-18T17:32:35.590Z,14.23
2019-02-18T17:37:46.261Z,14.97
2019-02-18T17:42:54.711Z,14.20
2019-02-18T17:48:01.465Z,13.53
2019-02-18T17:53:09.511Z,14.13
2019-02-18T17:58:21.253Z,14.67
2019-02-18T18:03:33.002Z,14.70
2019-02-18T18:08:42.890Z,14.47
2019-02-18T18:13:52.752Z,14.90
2019-02-18T18:19:09.069Z,15.17
2019-02-18T18:24:11.663Z,15.83
2019-02-18T18:29:22.888Z,15.77
2019-02-18T18:34:36.394Z,14.40
2019-02-18T18:39:49.131Z,13.57
2019-02-18T18:44:59.263Z,14.90
2019-02-18T18:50:09.204Z,15.17
2019-02-18T18:55:22.693Z,19.15
2019-02-18T19:00:29.728Z,19.03
2019-02-18T19:05:44.108Z,16.13
2019-02-18T19:10:51.912Z,16.60
2019-02-18T19:16:00.150Z,15.67
2019-02-18T19:21:13.719Z,17.83
2019-02-18T19:26:23.305Z,17.20
2019-02-18T19:31:33.292Z,17.37
2019-02-18T19:36:47.122Z,15.97
2019-02-18T19:41:56.311Z,17.97
2019-02-18T19:47:07.111Z,16.50
2019-02-18T19:52:17.088Z,15.63
2019-02-18T19:57:25.419Z,16.37
2019-02-18T20:02:40.103Z,15.77
2019-02-18T20:07:51.145Z,15.57
2019-02-18T20:13:01.482Z,17.37
2019-02-18T20:18:13.880Z,18.37
2019-02-18T20:23:29.477Z,18.42
2019-02-18T20:28:38.230Z,16.80
2019-02-18T20:34:46.983Z,17.63
2019-02-18T20:39:59.328Z,15.57
2019-02-18T20:45:08.231Z,17.57
2019-02-18T20:50:19.110Z,18.70
2019-02-18T20:55:31.746Z,19.40
2019-02-18T21:00:44.583Z,18.17
2019-02-18T21:05:55.300Z,19.60
2019-02-18T21:11:05.083Z,20.10
2019-02-18T21:16:20.496Z,19.77
2019-02-18T21:21:31.060Z,19.40
2019-02-18T21:26:41.122Z,19.43
2019-02-18T21:31:54.807Z,18.67
2019-02-18T21:37:03.987Z,19.60
2019-02-18T21:42:11.565Z,19.17
2019-02-18T21:47:25.091Z,18.07
2019-02-18T21:52:34.205Z,17.23
2019-02-18T21:57:46.823Z,17.93
2019-02-18T22:02:57.779Z,17.57
2019-02-18T22:08:06.975Z,18.20
2019-02-18T22:13:21.317Z,18.65
2019-02-18T22:18:33.989Z,18.00
2019-02-18T22:24:07.693Z,17.37
2019-02-18T22:29:23.087Z,17.57
2019-02-18T22:34:37.502Z,18.87
2019-02-18T22:39:48.725Z,18.47
2019-02-18T22:44:59.561Z,18.50
2019-02-18T22:50:11.431Z,18.07
2019-02-18T22:55:21.257Z,18.50
2019-02-18T23:00:56.746Z,18.37
2019-02-18T23:06:11.144Z,17.53
2019-02-18T23:11:17.975Z,18.12
2019-02-18T23:16:28.658Z,17.80
2019-02-18T23:21:37.698Z,19.73
2019-02-18T23:26:46.588Z,19.83
2019-02-18T23:31:54.918Z,20.33
2019-02-18T23:37:08.436Z,18.13
2019-02-18T23:42:21.922Z,19.48
2019-02-18T23:47:34.700Z,20.60
2019-02-18T23:52:43.615Z,21.95
2019-02-18T23:57:53.916Z,21.57
